Time;durP1;ratioP1;P1;durP2;ratioP2;P2;SDS_P1;SDS_P2;PMS_P1;PMS_P2;Temp;Humidity;BMP_temperature;BMP_pressure;BME280_temperature;BME280_humidity;BME280_pressure;Samples;Min_cycle;Max_cycle;Signal;HPM_P1;HPM_P2
2022/12/04 11:29:50;;;;;;;;;;;;;;;-4.62;52.88;102874.81;5053860;28;20252;-68
2022/12/04 11:32:19;;;;;;;;;;;;;;;-4.53;52.15;102891.22;5051821;28;19987;-68
2022/12/04 11:34:45;;;;;;;;;;;;;;;-4.92;53.25;102886.47;4702211;28;10000208;-68
2022/12/04 11:37:18;;;;;;;;;;;;;;;-4.87;53.67;102881.72;5053083;28;20147;-69
2022/12/04 11:39:44;;;;;;;;;;;;;;;-4.86;53.78;102883.44;5049115;28;19928;-68
2022/12/04 11:42:15;;;;;;;;;;;;;;;-4.84;53.81;102878.00;5053583;28;19929;-68
2022/12/04 11:44:48;;;;;;;;;;;;;;;-4.97;53.42;102882.41;5041740;28;19929;-64
2022/12/04 11:47:17;;;;;;;;;;;;;;;-5.38;54.37;102879.53;5054350;28;19933;-65
2022/12/04 11:49:43;;;;;;;;;;;;;;;-5.51;55.16;102879.44;5017931;28;20039;-64
2022/12/04 11:52:20;;;;;;;;;;;;;;;-5.52;55.20;102863.50;5048516;28;20146;-65
2022/12/04 11:54:52;;;;;;;;;;;;;;;-5.56;55.31;102871.72;5058024;28;19935;-65
2022/12/04 11:57:22;;;;;;;;;;;;;;;-5.72;55.80;102878.91;5051794;28;19936;-68
2022/12/04 11:59:53;;;;;;;;;;;;;;;-5.85;56.08;102874.31;5057610;28;19939;-68
2022/12/04 12:02:33;;;;;;;;;;;;;;;-5.79;56.42;102875.75;5053014;28;19942;-68
2022/12/04 12:05:14;;;;;;;;;;;;;;;-6.07;56.51;102853.44;5048479;28;19935;-64
2022/12/04 12:07:47;;;;;;;;;;;;;;;-6.19;56.93;102876.31;5048720;28;19930;-64
2022/12/04 12:10:18;;;;;;;;;;;;;;;-6.38;57.77;102879.16;5054974;28;20479;-65
2022/12/04 12:12:48;;;;;;;;;;;;;;;-6.59;58.26;102876.78;5058159;28;19928;-68
2022/12/04 12:15:20;;;;;;;;;;;;;;;-6.84;58.66;102875.47;5051495;28;20023;-68
2022/12/04 12:17:53;;;;;;;;;;;;;;;-7.07;59.66;102867.91;5056116;28;19958;-68
2022/12/04 12:20:22;;;;;;;;;;;;;;;-7.26;60.32;102872.41;5059613;28;19934;-68
2022/12/04 12:23:01;;;;;;;;;;;;;;;-7.49;60.80;102881.59;5054257;28;19928;-68
2022/12/04 12:25:31;;;;;;;;;;;;;;;-7.71;61.40;102880.06;5047377;28;19932;-68
2022/12/04 12:28:08;;;;;;;;;;;;;;;-7.81;62.13;102876.16;5060264;28;20407;-64
2022/12/04 12:30:40;;;;;;;;;;;;;;;-7.99;62.49;102880.59;5091929;28;19942;-64
2022/12/04 12:33:13;;;;;;;;;;;;;;;-8.13;63.09;102863.53;5086224;28;20230;-64
2022/12/04 12:35:43;;;;;;;;;;;;;;;-8.22;63.37;102876.41;5075818;28;19981;-64
2022/12/04 12:38:10;;;;;;;;;;;;;;;-8.32;63.81;102876.03;5095541;28;19928;-64
2022/12/04 12:40:38;;;;;;;;;;;;;;;-8.46;64.44;102876.72;5097321;28;20034;-64
2022/12/04 12:43:06;;;;;;;;;;;;;;;-8.59;64.82;102882.63;5083824;28;20030;-64
2022/12/04 12:45:37;;;;;;;;;;;;;;;-8.71;65.02;102873.47;5090480;28;19928;-64
2022/12/04 12:48:07;;;;;;;;;;;;;;;-8.81;65.68;102877.47;5090161;28;19993;-68
2022/12/04 12:50:40;;;;;;;;;;;;;;;-8.89;65.85;102880.47;5094042;28;19928;-68
2022/12/04 12:53:09;;;;;;;;;;;;;;;-8.95;66.24;102879.91;5090507;28;20393;-68
2022/12/04 12:55:35;;;;;;;;;;;;;;;-9.01;66.66;102883.69;5073907;28;19935;-68
2022/12/04 12:58:06;;;;;;;;;;;;;;;-9.06;66.72;102878.59;5084265;28;19975;-68
2022/12/04 13:00:35;;;;;;;;;;;;;;;-9.12;67.34;102882.41;5102457;28;19947;-67
2022/12/04 13:03:03;;;;;;;;;;;;;;;-9.20;67.47;102889.84;5098112;28;19935;-67
2022/12/04 13:05:32;;;;;;;;;;;;;;;-9.24;67.54;102896.22;5082389;28;19928;-68
2022/12/04 13:08:02;;;;;;;;;;;;;;;-9.28;67.98;102889.34;5084155;28;20203;-68
2022/12/04 13:10:30;;;;;;;;;;;;;;;-9.32;68.22;102893.03;5086026;28;20688;-68
2022/12/04 13:12:58;;;;;;;;;;;;;;;-9.36;68.25;102894.09;5074229;28;19927;-68
2022/12/04 13:15:28;;;;;;;;;;;;;;;-9.39;68.36;102889.78;5087355;28;20279;-67
2022/12/04 13:17:55;;;;;;;;;;;;;;;-9.45;68.26;102885.63;5090343;28;19932;-68
2022/12/04 13:20:24;;;;;;;;;;;;;;;-9.50;68.43;102887.63;5088040;28;19927;-64
2022/12/04 13:22:56;;;;;;;;;;;;;;;-9.50;68.89;102897.38;5086193;28;19928;-64
2022/12/04 13:25:30;;;;;;;;;;;;;;;-9.56;68.89;102888.75;5104157;28;19935;-67
2022/12/04 13:28:02;;;;;;;;;;;;;;;-9.61;69.03;102881.91;5095256;28;19934;-67
2022/12/04 13:30:31;;;;;;;;;;;;;;;-9.66;68.89;102882.16;5058550;28;19927;-64
2022/12/04 13:33:18;;;;;;;;;;;;;;;-9.65;69.46;102888.28;5058740;28;19939;-64
2022/12/04 13:35:50;;;;;;;;;;;;;;;-9.67;69.50;102883.06;5069970;28;19928;-64
2022/12/04 13:38:21;;;;;;;;;;;;;;;-9.68;69.21;102879.53;5092505;28;19928;-64
2022/12/04 13:40:50;;;;;;;;;;;;;;;-9.68;69.15;102889.28;5094499;28;20355;-64
2022/12/04 13:43:20;;;;;;;;;;;;;;;-9.70;68.86;102891.13;5092845;28;19928;-64
2022/12/04 13:45:47;;;;;;;;;;;;;;;-9.70;69.34;102892.00;5084083;28;20023;-64
2022/12/04 13:48:13;;;;;;;;;;;;;;;-9.70;69.30;102901.72;5091856;28;19932;-63
2022/12/04 13:50:39;;;;;;;;;;;;;;;-9.71;69.04;102900.88;5091781;28;19927;-64
2022/12/04 13:53:05;;;;;;;;;;;;;;;-9.73;68.72;102891.25;5084845;28;20381;-64
2022/12/04 13:55:32;;;;;;;;;;;;;;;-9.74;69.00;102886.91;5087102;28;19928;-64
2022/12/04 13:58:22;;;;;;;;;;;;;;;-9.75;68.98;102890.47;5081544;28;20026;-64
2022/12/04 14:00:58;;;;;;;;;;;;;;;-9.77;68.83;102879.09;5088822;28;20525;-64
2022/12/04 14:03:27;;;;;;;;;;;;;;;-9.79;69.27;102888.88;5085755;28;20529;-68
2022/12/04 14:05:53;;;;;;;;;;;;;;;-9.81;69.18;102885.44;5073769;28;20621;-67
2022/12/04 14:08:22;;;;;;;;;;;;;;;-9.85;69.27;102884.72;5083848;28;19980;-68
2022/12/04 14:10:57;;;;;;;;;;;;;;;-9.86;69.22;102883.84;5090178;28;19932;-68
2022/12/04 14:13:27;;;;;;;;;;;;;;;-9.85;69.30;102887.34;5089798;28;19928;-67
2022/12/04 14:16:02;;;;;;;;;;;;;;;-9.85;69.50;102885.56;5092368;28;19927;-68
2022/12/04 14:18:28;;;;;;;;;;;;;;;-9.88;69.45;102888.34;5089758;28;19935;-64
2022/12/04 14:20:57;;;;;;;;;;;;;;;-9.88;69.26;102885.69;5091667;28;20139;-64
2022/12/04 14:23:25;;;;;;;;;;;;;;;-9.90;69.29;102884.06;5090052;28;19997;-63
2022/12/04 14:25:56;;;;;;;;;;;;;;;-9.91;69.36;102885.81;5086956;28;20406;-64
2022/12/04 14:28:25;;;;;;;;;;;;;;;-9.93;69.12;102882.38;5071797;28;19928;-64
2022/12/04 14:31:09;;;;;;;;;;;;;;;-9.95;69.50;102881.59;5090241;28;20022;-64
2022/12/04 14:33:37;;;;;;;;;;;;;;;-9.95;69.62;102880.72;4726767;28;10000534;-64
2022/12/04 14:36:05;;;;;;;;;;;;;;;-9.98;69.63;102876.44;5088784;28;20024;-64
2022/12/04 14:38:31;;;;;;;;;;;;;;;-9.99;69.63;102878.22;5086887;28;19959;-64
2022/12/04 14:40:57;;;;;;;;;;;;;;;-10.02;69.70;102878.34;5088188;28;20092;-64
2022/12/04 14:43:26;;;;;;;;;;;;;;;-10.03;69.66;102870.44;5099955;28;19939;-63
2022/12/04 14:45:55;;;;;;;;;;;;;;;-10.06;69.87;102878.53;5093445;28;20027;-64
2022/12/04 14:48:26;;;;;;;;;;;;;;;-10.11;69.69;102874.28;5088136;28;19934;-64
2022/12/04 14:50:58;;;;;;;;;;;;;;;-10.12;69.92;102877.88;5087030;28;20314;-64
2022/12/04 14:53:29;;;;;;;;;;;;;;;-10.11;69.99;102876.94;5085724;28;19928;-64
2022/12/04 14:56:00;;;;;;;;;;;;;;;-10.15;70.14;102874.47;5090979;28;19936;-64
2022/12/04 14:58:29;;;;;;;;;;;;;;;-10.18;70.03;102880.75;5100071;28;19940;-64
2022/12/04 15:00:56;;;;;;;;;;;;;;;-10.18;70.25;102879.91;5094385;28;19932;-64
2022/12/04 15:03:22;;;;;;;;;;;;;;;-10.22;69.80;102880.94;5099711;28;19927;-64
2022/12/04 15:05:48;;;;;;;;;;;;;;;-10.28;70.46;102887.34;5094910;28;20069;-64
2022/12/04 15:08:14;;;;;;;;;;;;;;;-10.33;70.39;102879.59;5097347;28;19932;-64
2022/12/04 15:13:34;;;;;;;;;;;;;;;-10.34;70.60;102884.94;5096755;28;19948;-64
2022/12/04 15:16:06;;;;;;;;;;;;;;;-10.37;70.55;102879.78;5095404;28;20000;-64
2022/12/04 15:18:33;;;;;;;;;;;;;;;-10.38;71.08;102878.06;5095565;28;19928;-64
2022/12/04 15:20:59;;;;;;;;;;;;;;;-10.38;71.02;102878.06;5087944;28;19934;-64
2022/12/04 15:23:27;;;;;;;;;;;;;;;-10.40;71.03;102872.81;5093755;28;19928;-63
2022/12/04 15:25:54;;;;;;;;;;;;;;;-10.43;71.26;102887.09;5089963;28;19932;-64
2022/12/04 15:28:21;;;;;;;;;;;;;;;-10.45;71.34;102882.75;5092477;28;19938;-63
2022/12/04 15:30:49;;;;;;;;;;;;;;;-10.48;71.86;102869.66;5096775;28;20421;-64
2022/12/04 15:33:18;;;;;;;;;;;;;;;-10.52;72.08;102870.72;5094402;28;19934;-64
2022/12/04 15:35:46;;;;;;;;;;;;;;;-10.55;71.81;102863.75;5096429;28;19928;-64
2022/12/04 15:38:12;;;;;;;;;;;;;;;-10.56;71.79;102872.63;5095526;28;20460;-63
2022/12/04 15:40:47;;;;;;;;;;;;;;;-10.60;72.17;102866.56;5096692;28;19935;-67
2022/12/04 15:43:15;;;;;;;;;;;;;;;-10.61;72.45;102870.16;5091445;28;19927;-67
2022/12/04 15:45:41;;;;;;;;;;;;;;;-10.62;72.34;102880.78;5091610;28;20388;-68
2022/12/04 15:48:08;;;;;;;;;;;;;;;-10.65;72.10;102876.50;5092480;28;19934;-68
2022/12/04 15:50:34;;;;;;;;;;;;;;;-10.64;72.65;102883.50;5072621;28;20038;-67
2022/12/04 15:53:02;;;;;;;;;;;;;;;-10.64;72.47;102864.97;5096875;28;20858;-67
2022/12/04 15:55:30;;;;;;;;;;;;;;;-10.69;72.58;102872.25;5095463;28;19939;-68
2022/12/04 15:57:57;;;;;;;;;;;;;;;-10.70;72.61;102881.94;5091325;28;19935;-67
2022/12/04 16:00:25;;;;;;;;;;;;;;;-10.81;72.35;102862.13;5099507;28;20491;-64
2022/12/04 16:02:52;;;;;;;;;;;;;;;-10.74;72.36;102879.47;5094094;28;19935;-64
2022/12/04 16:05:33;;;;;;;;;;;;;;;-10.76;72.18;102897.19;5093393;28;19928;-64
2022/12/04 16:08:00;;;;;;;;;;;;;;;-10.80;72.22;102882.38;5090251;28;19928;-63
2022/12/04 16:10:27;;;;;;;;;;;;;;;-10.82;72.70;102890.34;5092756;28;19928;-64
2022/12/04 16:12:54;;;;;;;;;;;;;;;-10.85;72.78;102891.34;5092120;28;19977;-64
2022/12/04 16:15:20;;;;;;;;;;;;;;;-10.86;72.30;102886.94;5073106;28;19993;-64
2022/12/04 16:17:46;;;;;;;;;;;;;;;-10.87;72.29;102879.09;5095506;28;19931;-65
2022/12/04 16:20:12;;;;;;;;;;;;;;;-10.90;72.53;102884.50;5089787;28;20450;-64
2022/12/04 16:22:40;;;;;;;;;;;;;;;-10.94;72.42;102881.13;5092254;28;19982;-64
2022/12/04 16:25:06;;;;;;;;;;;;;;;-10.99;72.82;102891.00;5090725;28;19928;-64
2022/12/04 16:27:32;;;;;;;;;;;;;;;-11.04;72.73;102879.72;5093225;28;20010;-64
2022/12/04 16:29:58;;;;;;;;;;;;;;;-11.02;73.02;102888.44;5072171;28;20030;-64
2022/12/04 16:32:27;;;;;;;;;;;;;;;-11.05;73.06;102880.66;5095595;28;19928;-68
2022/12/04 16:34:53;;;;;;;;;;;;;;;-11.06;73.19;102878.91;5090049;28;19936;-68
2022/12/04 16:37:21;;;;;;;;;;;;;;;-11.11;73.53;102877.31;5094416;28;19932;-68
2022/12/04 16:39:51;;;;;;;;;;;;;;;-11.16;73.27;102879.28;5091540;28;19934;-68
2022/12/04 16:42:17;;;;;;;;;;;;;;;-11.18;73.76;102874.97;5088765;28;19928;-68
2022/12/04 16:44:43;;;;;;;;;;;;;;;-11.20;73.86;102868.88;5095830;28;19975;-69
2022/12/04 16:47:09;;;;;;;;;;;;;;;-11.21;73.97;102875.94;5091512;28;20042;-68
2022/12/04 16:49:35;;;;;;;;;;;;;;;-11.22;73.77;102870.72;5087205;28;19935;-68
2022/12/04 16:52:01;;;;;;;;;;;;;;;-11.23;73.88;102872.47;5091603;28;19927;-68
2022/12/04 16:54:27;;;;;;;;;;;;;;;-11.22;74.03;102879.50;5075723;28;19966;-68
2022/12/04 16:56:54;;;;;;;;;;;;;;;-11.26;73.88;102875.25;5090115;28;20780;-68
2022/12/04 16:59:20;;;;;;;;;;;;;;;-11.26;73.94;102875.25;5076311;28;19928;-68
2022/12/04 17:01:48;;;;;;;;;;;;;;;-11.29;73.80;102878.00;5091019;28;19932;-68
2022/12/04 17:04:14;;;;;;;;;;;;;;;-11.32;73.77;102871.03;5090403;28;19928;-68
2022/12/04 17:06:40;;;;;;;;;;;;;;;-11.35;73.80;102871.16;5085881;28;19954;-64
2022/12/04 17:09:06;;;;;;;;;;;;;;;-11.34;74.02;102878.16;5088936;28;19928;-64
2022/12/04 17:11:32;;;;;;;;;;;;;;;-11.34;73.92;102877.28;5089437;28;19928;-64
2022/12/04 17:13:59;;;;;;;;;;;;;;;-11.36;74.11;102880.00;5092149;28;19932;-64
2022/12/04 17:16:27;;;;;;;;;;;;;;;-11.38;74.03;102886.25;5092927;28;19932;-64
2022/12/04 17:18:53;;;;;;;;;;;;;;;-11.39;73.90;102898.63;5092060;28;19935;-69
2022/12/04 17:21:19;;;;;;;;;;;;;;;-11.38;74.20;102884.50;5089378;28;20026;-68
2022/12/04 17:23:45;;;;;;;;;;;;;;;-11.38;74.13;102876.56;5089563;28;20439;-69
2022/12/04 17:26:12;;;;;;;;;;;;;;;-11.37;73.75;102878.28;5085388;28;19962;-68
2022/12/04 17:28:38;;;;;;;;;;;;;;;-11.39;74.09;102882.78;5088016;28;20026;-68
2022/12/04 17:31:11;;;;;;;;;;;;;;;-11.42;73.94;102878.44;4733818;28;10000469;-68
2022/12/04 17:33:37;;;;;;;;;;;;;;;-11.42;73.81;102872.28;5083679;28;19938;-68
2022/12/04 17:36:06;;;;;;;;;;;;;;;-11.43;74.07;102870.56;5088936;28;19928;-68
2022/12/04 17:38:32;;;;;;;;;;;;;;;-11.44;74.29;102871.47;5093387;28;19928;-68
2022/12/04 17:40:58;;;;;;;;;;;;;;;-11.43;74.03;102874.09;5086622;28;20665;-68
2022/12/04 17:43:24;;;;;;;;;;;;;;;-11.45;73.90;102870.63;5086507;28;20023;-68
2022/12/04 17:45:50;;;;;;;;;;;;;;;-11.49;74.12;102876.94;5085434;28;20479;-68
2022/12/04 17:48:17;;;;;;;;;;;;;;;-11.50;73.91;102877.84;5070519;28;20491;-70
2022/12/04 17:50:43;;;;;;;;;;;;;;;-11.50;73.99;102863.78;5085169;28;19996;-68
2022/12/04 17:53:08;;;;;;;;;;;;;;;-11.51;74.23;102860.28;5086256;28;20386;-68
2022/12/04 17:55:34;;;;;;;;;;;;;;;-11.51;73.98;102872.63;5088491;28;19927;-69
2022/12/04 17:58:01;;;;;;;;;;;;;;;-11.52;73.93;102855.06;5085375;28;19928;-68
2022/12/04 18:00:26;;;;;;;;;;;;;;;-11.51;74.05;102855.00;5086132;28;20410;-68
2022/12/04 18:02:52;;;;;;;;;;;;;;;-11.51;74.00;102855.00;5083703;28;20661;-68
2022/12/04 18:05:22;;;;;;;;;;;;;;;-11.54;73.56;102850.69;5085480;28;19929;-68
2022/12/04 18:07:47;;;;;;;;;;;;;;;-11.56;73.83;102844.59;5088248;28;19931;-68
2022/12/04 18:10:14;;;;;;;;;;;;;;;-11.57;73.85;102847.31;5087869;28;19973;-68
2022/12/04 18:12:40;;;;;;;;;;;;;;;-11.62;73.63;102855.38;5086066;28;20306;-68
2022/12/04 18:15:06;;;;;;;;;;;;;;;-11.62;73.99;102859.81;5072418;28;19929;-66
2022/12/04 18:17:31;;;;;;;;;;;;;;;-11.63;74.00;102855.41;5076517;28;20395;-68
2022/12/04 18:19:57;;;;;;;;;;;;;;;-11.68;73.96;102848.53;5089025;28;19936;-68
2022/12/04 18:22:26;;;;;;;;;;;;;;;-11.70;74.15;102857.44;5086178;28;19936;-68
2022/12/04 18:24:52;;;;;;;;;;;;;;;-11.68;74.41;102847.69;5093682;28;19973;-68
2022/12/04 18:27:17;;;;;;;;;;;;;;;-11.68;74.16;102852.97;5091930;28;20340;-68
2022/12/04 18:29:44;;;;;;;;;;;;;;;-11.69;73.90;102853.88;5080154;28;19927;-64
2022/12/04 18:32:10;;;;;;;;;;;;;;;-11.72;74.05;102846.06;5062318;28;19990;-68
2022/12/04 18:34:37;;;;;;;;;;;;;;;-11.73;74.53;102849.59;5099520;28;19927;-64
2022/12/04 18:37:03;;;;;;;;;;;;;;;-11.74;74.15;102850.53;5078906;28;19981;-64
2022/12/04 18:39:30;;;;;;;;;;;;;;;-11.74;74.40;102850.53;5096669;28;19990;-68
2022/12/04 18:41:55;;;;;;;;;;;;;;;-11.78;74.37;102844.50;5092994;28;19963;-67
2022/12/04 18:44:22;;;;;;;;;;;;;;;-11.82;74.60;102837.59;5078522;28;19956;-68
2022/12/04 18:46:47;;;;;;;;;;;;;;;-11.84;74.42;102844.72;5093713;28;19928;-68
2022/12/04 18:49:13;;;;;;;;;;;;;;;-11.86;74.96;102842.16;5092827;28;19928;-68
2022/12/04 18:51:40;;;;;;;;;;;;;;;-11.86;74.96;102839.50;5077932;28;20387;-68
2022/12/04 18:54:06;;;;;;;;;;;;;;;-11.88;75.15;102843.94;5093468;28;20354;-68
2022/12/04 18:56:34;;;;;;;;;;;;;;;-11.84;75.16;102836.78;5097181;28;19932;-68
2022/12/04 18:59:02;;;;;;;;;;;;;;;-11.83;74.64;102841.16;5097522;28;19928;-68
2022/12/04 19:01:29;;;;;;;;;;;;;;;-11.85;74.70;102835.94;5078197;28;19927;-68
2022/12/04 19:03:56;;;;;;;;;;;;;;;-11.89;75.00;102828.19;5096569;28;19954;-68
2022/12/04 19:06:25;;;;;;;;;;;;;;;-11.94;74.86;102832.72;5096142;28;20183;-68
2022/12/04 19:08:51;;;;;;;;;;;;;;;-12.15;75.24;102796.53;5095359;28;19932;-68
2022/12/04 19:11:17;;;;;;;;;;;;;;;-11.93;75.39;102826.56;5093614;28;19939;-68
2022/12/04 19:13:46;;;;;;;;;;;;;;;-11.94;75.40;102825.69;4738945;28;10000207;-68
2022/12/04 19:16:12;;;;;;;;;;;;;;;-11.94;75.33;102823.06;5089971;28;20413;-68
2022/12/04 19:18:39;;;;;;;;;;;;;;;-11.95;75.06;102826.59;5097314;28;20046;-68
2022/12/04 19:21:04;;;;;;;;;;;;;;;-11.96;75.42;102824.88;5090080;28;20937;-68
2022/12/04 19:23:31;;;;;;;;;;;;;;;-11.95;75.47;102823.97;5088178;28;19935;-68
2022/12/04 19:25:57;;;;;;;;;;;;;;;-11.96;75.14;102819.59;5080802;28;19944;-68
2022/12/04 19:28:26;;;;;;;;;;;;;;;-11.95;75.40;102826.59;5084568;28;19932;-68
2022/12/04 19:30:54;;;;;;;;;;;;;;;-11.97;75.45;102818.72;5081689;28;19928;-68
2022/12/04 19:33:19;;;;;;;;;;;;;;;-11.96;75.58;102824.88;5084768;28;20705;-69
2022/12/04 19:35:54;;;;;;;;;;;;;;;-11.99;75.28;102820.56;5094980;28;19967;-69
2022/12/04 19:38:20;;;;;;;;;;;;;;;-12.00;75.76;102816.22;5087998;28;19935;-68
2022/12/04 19:40:46;;;;;;;;;;;;;;;-11.99;75.72;102822.38;5095258;28;20354;-65
2022/12/04 19:43:12;;;;;;;;;;;;;;;-12.02;75.73;102814.56;5098947;28;19935;-65
2022/12/04 19:45:38;;;;;;;;;;;;;;;-12.01;75.61;102808.38;5095106;28;20471;-65
2022/12/04 19:48:05;;;;;;;;;;;;;;;-12.00;75.50;102818.84;5097402;28;19928;-68
2022/12/04 19:50:32;;;;;;;;;;;;;;;-11.99;75.32;102812.66;5099119;28;19977;-68
2022/12/04 19:52:57;;;;;;;;;;;;;;;-11.99;75.64;102803.88;5090158;28;19932;-67
2022/12/04 19:55:23;;;;;;;;;;;;;;;-11.97;75.65;102807.31;5081152;28;20018;-68
2022/12/04 19:57:49;;;;;;;;;;;;;;;-12.00;75.82;102800.38;5075918;28;20342;-68
2022/12/04 20:00:15;;;;;;;;;;;;;;;-11.98;75.63;102813.53;5100891;28;19932;-68
2022/12/04 20:02:41;;;;;;;;;;;;;;;-11.99;75.53;102807.38;5086974;28;19967;-68
2022/12/04 20:05:09;;;;;;;;;;;;;;;-12.01;75.52;102808.38;5072456;28;19963;-68
2022/12/04 20:07:35;;;;;;;;;;;;;;;-12.04;75.58;102812.00;5095619;28;20407;-68
2022/12/04 20:10:01;;;;;;;;;;;;;;;-12.06;75.92;102810.31;5086941;28;20022;-68
2022/12/04 20:12:27;;;;;;;;;;;;;;;-12.03;75.76;102807.56;5089478;28;19928;-68
2022/12/04 20:14:52;;;;;;;;;;;;;;;-11.99;75.88;102806.53;5095302;28;19948;-69
2022/12/04 20:17:18;;;;;;;;;;;;;;;-12.00;75.58;102804.81;5095242;28;20487;-68
2022/12/04 20:19:44;;;;;;;;;;;;;;;-12.03;75.90;102804.91;5087185;28;20351;-68
2022/12/04 20:22:11;;;;;;;;;;;;;;;-12.05;75.78;102802.34;5083526;28;20373;-68
2022/12/04 20:24:37;;;;;;;;;;;;;;;-12.05;75.79;102809.38;5081750;28;20117;-69
2022/12/04 20:27:03;;;;;;;;;;;;;;;-12.06;75.61;102802.38;5086415;28;20112;-68
2022/12/04 20:29:29;;;;;;;;;;;;;;;-12.07;75.88;102803.31;5088135;28;19973;-68
2022/12/04 20:31:55;;;;;;;;;;;;;;;-12.08;76.11;102802.47;5084749;28;19928;-68
2022/12/04 20:34:21;;;;;;;;;;;;;;;-12.06;75.87;102799.75;5086670;28;20051;-69
2022/12/04 20:36:47;;;;;;;;;;;;;;;-12.07;76.28;102801.53;5097905;28;19953;-68
2022/12/04 20:39:15;;;;;;;;;;;;;;;-12.05;75.88;102798.84;5105148;28;20466;-68
2022/12/04 20:41:41;;;;;;;;;;;;;;;-12.05;76.14;102793.56;5106921;28;20398;-65
2022/12/04 20:44:08;;;;;;;;;;;;;;;-12.01;76.24;102803.13;5103685;28;19927;-65
2022/12/04 20:46:35;;;;;;;;;;;;;;;-11.98;76.05;102808.25;5084851;28;19932;-65
2022/12/04 20:49:03;;;;;;;;;;;;;;;-12.00;75.41;102802.16;5083769;28;20031;-65
2022/12/04 20:51:30;;;;;;;;;;;;;;;-12.03;75.93;102800.50;5090921;28;20338;-68
2022/12/04 20:53:57;;;;;;;;;;;;;;;-12.05;76.04;102802.34;5081642;28;19969;-68
2022/12/04 20:56:25;;;;;;;;;;;;;;;-12.04;75.62;102806.72;5083594;28;20022;-68
2022/12/04 20:58:51;;;;;;;;;;;;;;;-12.06;75.81;102807.66;5085374;28;19928;-68
2022/12/04 21:01:18;;;;;;;;;;;;;;;-12.07;76.22;102808.59;5084349;28;20374;-68
2022/12/04 21:03:44;;;;;;;;;;;;;;;-12.05;75.72;102805.00;5095509;28;19927;-68
2022/12/04 21:06:11;;;;;;;;;;;;;;;-12.02;75.80;102804.00;5105029;28;19928;-68
2022/12/04 21:08:52;;;;;;;;;;;;;;;-12.04;75.64;102804.06;5102918;28;19931;-68
2022/12/04 21:11:17;;;;;;;;;;;;;;;-12.07;75.77;102792.75;5105564;28;19928;-68
2022/12/04 21:16:29;;;;;;;;;;;;;;;-12.12;75.84;102801.69;5095126;28;19950;-68
2022/12/04 21:18:55;;;;;;;;;;;;;;;-12.13;75.78;102799.09;5103166;28;19927;-68
2022/12/04 21:21:21;;;;;;;;;;;;;;;-12.16;75.63;102799.22;5088315;28;19935;-68
2022/12/04 21:23:47;;;;;;;;;;;;;;;-12.17;76.30;102800.13;5082772;28;19971;-68
2022/12/04 21:26:13;;;;;;;;;;;;;;;-12.17;75.83;102798.38;5079504;28;20027;-68
2022/12/04 21:28:38;;;;;;;;;;;;;;;-12.19;76.20;102792.25;5078228;28;19928;-68
2022/12/04 21:31:06;;;;;;;;;;;;;;;-12.20;76.17;102793.16;5086522;28;19935;-68
2022/12/04 21:33:32;;;;;;;;;;;;;;;-12.20;76.36;102787.88;5086425;28;19928;-68
2022/12/04 21:36:00;;;;;;;;;;;;;;;-12.18;76.00;102786.06;5067509;28;20065;-68
2022/12/04 21:38:26;;;;;;;;;;;;;;;-12.20;75.99;102782.63;5083236;28;19940;-68
2022/12/04 21:40:51;;;;;;;;;;;;;;;-12.23;76.19;102779.25;5085487;28;19932;-69
2022/12/04 21:43:17;;;;;;;;;;;;;;;-12.25;76.18;102771.38;5085113;28;19928;-68
2022/12/04 21:45:44;;;;;;;;;;;;;;;-12.24;76.48;102774.88;5084295;28;20026;-64
2022/12/04 21:48:12;;;;;;;;;;;;;;;-12.22;76.26;102763.34;5085320;28;19928;-64
2022/12/04 21:50:37;;;;;;;;;;;;;;;-12.21;76.23;102761.56;5087354;28;20379;-64
2022/12/04 21:53:03;;;;;;;;;;;;;;;-12.21;76.10;102764.22;5086116;28;19935;-64
2022/12/04 21:55:29;;;;;;;;;;;;;;;-12.23;76.12;102756.34;5102655;28;20144;-65
2022/12/04 21:57:55;;;;;;;;;;;;;;;-12.24;76.18;102759.91;5104306;28;19934;-65
2022/12/04 22:00:21;;;;;;;;;;;;;;;-12.27;76.11;102766.13;5104094;28;20295;-65
2022/12/04 22:02:46;;;;;;;;;;;;;;;-12.26;76.23;102759.94;5101434;28;19931;-65
2022/12/04 22:05:13;;;;;;;;;;;;;;;-12.25;76.25;102763.44;5107148;28;19927;-65
2022/12/04 22:07:39;;;;;;;;;;;;;;;-12.28;76.27;102748.56;5111404;28;19981;-68
2022/12/04 22:10:06;;;;;;;;;;;;;;;-12.29;76.21;102746.84;5110165;27;19927;-68
2022/12/04 22:12:32;;;;;;;;;;;;;;;-12.32;76.65;102749.59;5109392;28;19932;-68
2022/12/04 22:14:58;;;;;;;;;;;;;;;-12.34;76.61;102743.53;5104451;28;19936;-68
2022/12/04 22:17:27;;;;;;;;;;;;;;;-12.35;76.65;102754.13;5106189;28;20318;-68
2022/12/04 22:19:52;;;;;;;;;;;;;;;-12.40;76.44;102749.88;5107788;28;20030;-68
2022/12/04 22:22:20;;;;;;;;;;;;;;;-12.38;76.68;102748.94;5108565;28;20478;-68
2022/12/04 22:24:46;;;;;;;;;;;;;;;-12.40;76.78;102741.13;5107115;28;19997;-68
2022/12/04 22:27:14;;;;;;;;;;;;;;;-12.41;76.49;102736.72;5105903;28;19927;-68
2022/12/04 22:29:39;;;;;;;;;;;;;;;-12.42;76.64;102727.09;5103754;28;19927;-68
2022/12/04 22:32:05;;;;;;;;;;;;;;;-12.44;76.34;102736.84;5106349;28;19931;-68
2022/12/04 22:34:31;;;;;;;;;;;;;;;-12.43;76.63;102734.16;5109183;28;20355;-68
2022/12/04 22:36:57;;;;;;;;;;;;;;;-12.42;76.57;102735.00;5107331;28;20399;-68
2022/12/04 22:39:24;;;;;;;;;;;;;;;-12.43;76.63;102728.88;5105002;28;19928;-66
2022/12/04 22:41:49;;;;;;;;;;;;;;;-12.44;76.61;102728.91;5107543;28;19927;-68
2022/12/04 22:44:15;;;;;;;;;;;;;;;-12.45;76.69;102728.06;5108273;28;19934;-68
2022/12/04 22:46:41;;;;;;;;;;;;;;;-12.42;76.80;102727.09;5104859;28;19928;-69
2022/12/04 22:49:06;;;;;;;;;;;;;;;-12.37;76.55;102732.22;5102385;28;19927;-69
2022/12/04 22:51:32;;;;;;;;;;;;;;;-12.37;76.50;102725.19;5090851;28;19928;-69
2022/12/04 22:53:59;;;;;;;;;;;;;;;-12.39;76.61;102719.09;5071350;28;20104;-68
2022/12/04 22:56:27;;;;;;;;;;;;;;;-12.43;76.47;102715.69;5085187;28;19928;-68
2022/12/04 22:58:54;;;;;;;;;;;;;;;-12.44;76.73;102710.47;5069395;28;19928;-68
2022/12/04 23:01:21;;;;;;;;;;;;;;;-12.44;76.60;102721.00;5066386;28;19928;-68
2022/12/04 23:03:47;;;;;;;;;;;;;;;-12.44;76.43;102723.66;5079362;28;19932;-68
2022/12/04 23:06:13;;;;;;;;;;;;;;;-12.42;76.78;102721.81;5107946;28;20394;-68
2022/12/04 23:08:40;;;;;;;;;;;;;;;-12.43;76.35;102713.06;5108226;28;20016;-68
2022/12/04 23:11:07;;;;;;;;;;;;;;;-12.42;76.15;102709.50;5107633;28;19928;-68
2022/12/04 23:13:34;;;;;;;;;;;;;;;-12.44;76.38;102713.09;5107525;28;19996;-68
2022/12/04 23:16:00;;;;;;;;;;;;;;;-12.47;76.32;102715.84;5105984;28;19928;-65
2022/12/04 23:18:26;;;;;;;;;;;;;;;-12.44;76.48;102718.38;5106485;28;19927;-64
2022/12/04 23:20:52;;;;;;;;;;;;;;;-12.43;76.47;102723.59;5108663;28;19927;-65
2022/12/04 23:23:18;;;;;;;;;;;;;;;-12.46;76.36;102720.19;5107403;28;20426;-65
2022/12/04 23:25:43;;;;;;;;;;;;;;;-12.48;76.53;102717.63;5105296;28;19932;-64
2022/12/04 23:28:09;;;;;;;;;;;;;;;-12.48;76.41;102716.75;5108560;28;20378;-68
2022/12/04 23:30:36;;;;;;;;;;;;;;;-12.46;76.64;102713.16;5106072;28;19952;-68
2022/12/04 23:33:02;;;;;;;;;;;;;;;-12.46;76.51;102710.53;5107015;28;19927;-67
2022/12/04 23:35:28;;;;;;;;;;;;;;;-12.56;76.29;102691.53;5085561;28;19981;-68
2022/12/04 23:37:54;;;;;;;;;;;;;;;-12.46;76.24;102707.91;5105017;28;19927;-68
2022/12/04 23:40:20;;;;;;;;;;;;;;;-12.49;76.51;102700.06;5107489;28;20352;-68
2022/12/04 23:42:45;;;;;;;;;;;;;;;-12.49;76.23;102697.44;5108436;28;20503;-67
2022/12/04 23:45:11;;;;;;;;;;;;;;;-12.46;76.12;102704.38;5105532;28;20463;-68
2022/12/04 23:47:38;;;;;;;;;;;;;;;-12.46;76.48;102707.91;5068531;28;19935;-68
2022/12/04 23:50:04;;;;;;;;;;;;;;;-12.49;76.42;102694.78;5106379;28;19927;-69
2022/12/04 23:52:30;;;;;;;;;;;;;;;-12.51;76.45;102688.72;5106506;28;20030;-68
2022/12/04 23:54:56;;;;;;;;;;;;;;;-12.52;76.23;102689.63;5106381;28;20027;-68
2022/12/04 23:57:21;;;;;;;;;;;;;;;-12.57;76.09;102686.31;5103771;28;20425;-68
2022/12/04 23:59:47;;;;;;;;;;;;;;;-12.59;76.28;102694.25;5104094;28;19934;-69
